Union, Ohio
Current Conditions -  °F | °C
As of 7:56 AM on Sunday 23 Nov 2014 (Local Time) from KDAY Reporting Station
Broken Clouds Broken Clouds  
Wind Chill: 51°   Ceiling: 7000
Heat Index: 51°   Visibility: 10mi
Dew Point: 39°   Wind: 14mph
Humidity: 63%   Direction: 180°S
Pressure: 29.99"   Gusts: NA
Location:  39.8939°N, 84.3314°W
Report Text: KDAY 231256Z 18012KT 10SM BKN070 BKN200 11/04 A2999 RMK AO2 SLP155 T01060039
Loading
Personal Weather Stations






























Interactive Weather Map New forecast layout! Learn more

10-Day Weather Forecast

Advertisements
Track Severe Weather on mobile